• Join FlightAware (Why Join?)
  • Login
  • US Flag 
Rudolph Flight #1: Arrived! 
08:07AM EST


 

Airport Tracker/Info


-or-


 

Live Flight TrackerFlight Track Log ✈ XOJ549 ✈ 29-Jun-2013 ✈ KMRY - KVNY

Flight Track Log - Related Links

Times and Time Zones

All times are in EDT time to prevent confusion due to time zone crossing. See the XOJ549 flight status page for this flight to view local times or setup timezone preferences in your user account.

Time Position Orientation Groundspeed Altitude Reporting Facility
EDT Latitude Longitude Course Direction KTS MPH feet Rate Location/Type
03:43PM 36.5919 -121.7558 112° Southeast 236 272 13,900  Level Oakland Center
03:44PM 36.5264 -121.6719 134° Southeast 274 315 17,700 3,120 Climbing Oakland Center
03:45PM 36.3141 -121.4408 122° Southeast  Level Estimated
03:45PM 36.4622 -121.5889 134° Southeast 323 372 20,400  Level Oakland Center
03:46PM 36.2594 -121.3607 136° Southeast  Level Estimated
03:46PM 36.3942 -121.5000 134° Southeast 348 400 23,600  Level Oakland Center
03:47PM 36.3239 -121.4086 134° Southeast 360 414 26,500 2,640 Climbing Oakland Center
03:48PM 36.2514 -121.3169 134° Southeast 369 425 29,100 2,160 Climbing Oakland Center
03:49PM 36.1744 -121.2183 134° Southeast 389 448 31,000 900 Climbing Oakland Center
03:50PM 36.0889 -121.1075 134° Southeast 428 493 31,000  Level Oakland Center
03:51PM 36.0003 -120.9972 135° Southeast 448 516 31,000  Level Oakland Center
03:52PM 35.9144 -120.8872 134° Southeast 446 513 31,000  Level Oakland Center
03:53PM 35.8114 -120.7564 134° Southeast 443 510 31,000 -60 Level Oakland Center
03:54PM 35.7244 -120.6475 135° Southeast 445 512 30,900  Descending Oakland Center
03:55PM 35.6372 -120.5392 135° Southeast 445 512 31,000  Climbing Oakland Center
03:56PM 35.5517 -120.4314 134° Southeast 438 504 31,000  Level Oakland Center
03:57PM 35.4594 -120.3203 136° Southeast 448 516 31,000  Level Los Angeles Center
03:58PM 35.3733 -120.2083 133° Southeast 450 518 31,000  Level Los Angeles Center
03:59PM 35.2808 -120.0944 135° Southeast 447 514 31,000 -60 Level Los Angeles Center
04:00PM 35.1756 -119.9658 135° Southeast 446 513 30,900 -1,140 Descending Los Angeles Center
04:01PM 35.0872 -119.8572 135° Southeast 449 517 28,700 -2,160 Descending Los Angeles Center
04:02PM 35.0078 -119.7500 132° Southeast 430 495 26,500 -2,160 Descending Los Angeles Center
04:03PM 34.9322 -119.6475 132° Southeast 410 472 24,300 -2,160 Descending Los Angeles Center
04:04PM 34.8589 -119.5492 132° Southeast 395 455 22,100 -2,160 Descending Los Angeles Center
04:05PM 34.7894 -119.4542 132° Southeast 379 436 19,900 -2,460 Descending Los Angeles Center
04:06PM 34.7086 -119.3464 132° Southeast 361 415 17,100 -2,280 Descending Los Angeles Center
04:07PM 34.6444 -119.2592 132° Southeast 349 402 15,300 -1,560 Descending Los Angeles Center
04:08PM 34.5853 -119.1875 135° Southeast 334 384 13,900 -1,500 Descending Los Angeles Center
04:10PM 34.5081 -119.0828 132° Southeast 356 410 12,000 -1,320 Descending Los Angeles Center
04:11PM 34.4308 -118.9814 133° Southeast 328 377 11,000 -1,080 Descending Los Angeles Center
04:12PM 34.4147 -118.8906 102° East 295 339 9,800 -1,620 Descending Los Angeles Center
04:13PM 34.4072 -118.7908 95° East 298 343 7,700 -2,040 Descending Los Angeles Center
04:14PM 34.3928 -118.6953 100° East 287 330 5,700 -1,140 Descending Los Angeles Center
04:15PM 34.3606 -118.6150 116° Southeast 266 306 5,400 -720 Descending Los Angeles Center
04:16PM 34.3125 -118.5442 129° Southeast 267 307 4,300 -1,560 Descending Los Angeles Center
04:17PM 34.2589 -118.4956 143° Southeast 230 265 2,200 -1,140 Descending Los Angeles Center
04:19PM 34.1814 -118.4972 181° South 192 221 800 -720 Descending Los Angeles Center
04:21PM 34.2000 -118.4833 North  Level FlightAware Approximate